LOT6395 EPWA-LTFE
Flight info
| Callsign | LOT6395 |
|---|---|
| Flight time | N/A |
| Altitude | 37000 |
| Route | EVINA M985 KOTEK DCT ORTEB DCT KOJOT DCT PERIT DCT NARKA DCT ADUKU DCT EVRIK DCT OLMIP DCT EKNAB DCT SODGO DCT PENEV DCT RODIP UN131 PIBOM DCT BELGI UN131 DUGLA UG80 OKESA |
| Aircraft | B738/M-SDE2E3FGHIRWXY/LB1 |
Departure
| Time | N/A |
|---|---|
| Airport | Warsaw Chopin Airport (EPWA) |
Arrival
| Time | 2026-05-07 13:23 |
|---|---|
| Airport | Milas Bodrum International Airport (LTFE) |
| Time | Latitude | Longitude | Altitude | Speed | Heading |
|---|---|---|---|---|---|
| 2026-05-07 11:11 | 50.48870 | 20.34419 | 33870 ft | 443 kts | 163° |
| 2026-05-07 11:11 | 50.45993 | 20.36134 | 34125 ft | 442 kts | 163° |
| 2026-05-07 11:12 | 50.43108 | 20.37838 | 34317 ft | 443 kts | 163° |
| 2026-05-07 11:12 | 50.40210 | 20.39538 | 34492 ft | 444 kts | 163° |
| 2026-05-07 11:12 | 50.37317 | 20.41230 | 34720 ft | 444 kts | 163° |
| 2026-05-07 11:12 | 50.34424 | 20.42918 | 34948 ft | 443 kts | 163° |
| 2026-05-07 11:13 | 50.31537 | 20.44601 | 35144 ft | 444 kts | 163° |
| 2026-05-07 11:13 | 50.28638 | 20.46289 | 35336 ft | 444 kts | 163° |
| 2026-05-07 11:13 | 50.27254 | 20.47095 | 35434 ft | 444 kts | 163° |
| 2026-05-07 11:14 | 50.24355 | 20.48781 | 35655 ft | 444 kts | 163° |
| 2026-05-07 11:14 | 50.21463 | 20.50461 | 35854 ft | 444 kts | 163° |
| 2026-05-07 11:14 | 50.18568 | 20.52140 | 36048 ft | 444 kts | 163° |
| 2026-05-07 11:14 | 50.15674 | 20.53818 | 36243 ft | 444 kts | 163° |
| 2026-05-07 11:15 | 50.12769 | 20.55499 | 36439 ft | 444 kts | 163° |
| 2026-05-07 11:15 | 50.09872 | 20.57172 | 36634 ft | 444 kts | 164° |
| 2026-05-07 11:15 | 50.06960 | 20.58768 | 36816 ft | 443 kts | 165° |
| 2026-05-07 11:15 | 50.04070 | 20.60273 | 36921 ft | 444 kts | 166° |
| 2026-05-07 11:16 | 49.98167 | 20.63274 | 36922 ft | 445 kts | 166° |
| 2026-05-07 11:16 | 49.92306 | 20.66268 | 36916 ft | 442 kts | 166° |
| 2026-05-07 11:17 | 49.86486 | 20.69260 | 36924 ft | 439 kts | 165° |
| 2026-05-07 11:17 | 49.80694 | 20.72241 | 36920 ft | 437 kts | 166° |
| 2026-05-07 11:18 | 49.74920 | 20.75206 | 36941 ft | 438 kts | 166° |
| 2026-05-07 11:18 | 49.69155 | 20.78157 | 36925 ft | 439 kts | 166° |
| 2026-05-07 11:19 | 49.63345 | 20.81124 | 36933 ft | 441 kts | 166° |
| 2026-05-07 11:19 | 49.57503 | 20.84100 | 36932 ft | 442 kts | 166° |
| 2026-05-07 11:20 | 49.51653 | 20.87074 | 36936 ft | 443 kts | 166° |
| 2026-05-07 11:20 | 49.45788 | 20.90047 | 36935 ft | 444 kts | 166° |
| 2026-05-07 11:21 | 49.39892 | 20.93030 | 36929 ft | 440 kts | 166° |
| 2026-05-07 11:21 | 49.34168 | 20.95920 | 36938 ft | 432 kts | 166° |
| 2026-05-07 11:22 | 49.28458 | 20.98792 | 36940 ft | 431 kts | 166° |
| 2026-05-07 11:22 | 49.22762 | 21.01651 | 36955 ft | 431 kts | 166° |
| 2026-05-07 11:23 | 49.17061 | 21.04505 | 36953 ft | 432 kts | 166° |
| 2026-05-07 11:23 | 49.11340 | 21.07361 | 36957 ft | 433 kts | 166° |
| 2026-05-07 11:24 | 49.05592 | 21.10226 | 36951 ft | 435 kts | 166° |
| 2026-05-07 11:24 | 48.99829 | 21.13093 | 36957 ft | 437 kts | 166° |
| 2026-05-07 11:25 | 48.94021 | 21.15843 | 36957 ft | 437 kts | 168° |
| 2026-05-07 11:25 | 48.88148 | 21.18229 | 36953 ft | 437 kts | 169° |
| 2026-05-07 11:26 | 48.82268 | 21.20575 | 36955 ft | 437 kts | 169° |
| 2026-05-07 11:26 | 48.76395 | 21.22960 | 36962 ft | 436 kts | 169° |
| 2026-05-07 11:27 | 48.71517 | 21.24958 | 36963 ft | 436 kts | 169° |
| 2026-05-07 11:27 | 48.65653 | 21.27362 | 36965 ft | 436 kts | 169° |
| 2026-05-07 11:28 | 48.59797 | 21.29757 | 36967 ft | 436 kts | 169° |
| 2026-05-07 11:28 | 48.53943 | 21.32145 | 36963 ft | 435 kts | 169° |
| 2026-05-07 11:29 | 48.48087 | 21.34527 | 36966 ft | 435 kts | 169° |
| 2026-05-07 11:29 | 48.42236 | 21.36901 | 36969 ft | 435 kts | 169° |
| 2026-05-07 11:30 | 48.36381 | 21.39272 | 36966 ft | 436 kts | 169° |
| 2026-05-07 11:30 | 48.30564 | 21.41621 | 36968 ft | 436 kts | 169° |
| 2026-05-07 11:31 | 48.24707 | 21.43982 | 36981 ft | 435 kts | 169° |
| 2026-05-07 11:31 | 48.18855 | 21.46334 | 36995 ft | 435 kts | 169° |
| 2026-05-07 11:32 | 48.10061 | 21.49858 | 37008 ft | 436 kts | 169° |
| 2026-05-07 11:33 | 48.04195 | 21.52203 | 37015 ft | 436 kts | 169° |
| 2026-05-07 11:33 | 47.98325 | 21.54543 | 37024 ft | 436 kts | 169° |
| 2026-05-07 11:34 | 47.92448 | 21.56881 | 37014 ft | 437 kts | 169° |
| 2026-05-07 11:34 | 47.86603 | 21.59201 | 37025 ft | 438 kts | 169° |
| 2026-05-07 11:35 | 47.80677 | 21.61548 | 37006 ft | 438 kts | 169° |
| 2026-05-07 11:35 | 47.74837 | 21.63964 | 37011 ft | 439 kts | 168° |
| 2026-05-07 11:36 | 47.68984 | 21.66590 | 37006 ft | 439 kts | 167° |
| 2026-05-07 11:36 | 47.63128 | 21.69216 | 37016 ft | 439 kts | 167° |
| 2026-05-07 11:37 | 47.57271 | 21.71809 | 37023 ft | 439 kts | 167° |
| 2026-05-07 11:37 | 47.51406 | 21.74388 | 37020 ft | 439 kts | 167° |
| 2026-05-07 11:38 | 47.45548 | 21.76957 | 37018 ft | 439 kts | 167° |
| 2026-05-07 11:38 | 47.39674 | 21.79528 | 37018 ft | 440 kts | 167° |
| 2026-05-07 11:39 | 47.33797 | 21.82095 | 37016 ft | 441 kts | 167° |
| 2026-05-07 11:39 | 47.27938 | 21.84648 | 37017 ft | 442 kts | 167° |
| 2026-05-07 11:40 | 47.22039 | 21.87212 | 37042 ft | 441 kts | 167° |
| 2026-05-07 11:40 | 47.16153 | 21.89761 | 37035 ft | 441 kts | 167° |
| 2026-05-07 11:41 | 47.10276 | 21.92301 | 37045 ft | 440 kts | 167° |
| 2026-05-07 11:41 | 47.04405 | 21.94833 | 37050 ft | 439 kts | 167° |
| 2026-05-07 11:42 | 46.98545 | 21.97356 | 37041 ft | 438 kts | 167° |
| 2026-05-07 11:42 | 46.92695 | 21.99868 | 37047 ft | 438 kts | 168° |
| 2026-05-07 11:43 | 46.86850 | 22.02368 | 37041 ft | 437 kts | 168° |
| 2026-05-07 11:43 | 46.81008 | 22.04859 | 37044 ft | 437 kts | 168° |
| 2026-05-07 11:44 | 46.75157 | 22.07349 | 37039 ft | 438 kts | 167° |
| 2026-05-07 11:44 | 46.69299 | 22.09838 | 37042 ft | 438 kts | 167° |
| 2026-05-07 11:45 | 46.63429 | 22.12327 | 37048 ft | 439 kts | 168° |
| 2026-05-07 11:45 | 46.57551 | 22.14813 | 37046 ft | 441 kts | 167° |
| 2026-05-07 11:46 | 46.51646 | 22.17306 | 37049 ft | 442 kts | 167° |
| 2026-05-07 11:46 | 46.45716 | 22.19803 | 37039 ft | 443 kts | 167° |
| 2026-05-07 11:47 | 46.39819 | 22.22282 | 37046 ft | 444 kts | 167° |
| 2026-05-07 11:47 | 46.33887 | 22.24768 | 37046 ft | 444 kts | 167° |
| 2026-05-07 11:48 | 46.27947 | 22.27252 | 37046 ft | 444 kts | 167° |
| 2026-05-07 11:48 | 46.22018 | 22.29727 | 37042 ft | 444 kts | 167° |
| 2026-05-07 11:49 | 46.16084 | 22.32199 | 37042 ft | 443 kts | 167° |
| 2026-05-07 11:49 | 46.10162 | 22.34662 | 37029 ft | 443 kts | 167° |
| 2026-05-07 11:50 | 46.04247 | 22.37115 | 37040 ft | 442 kts | 167° |
| 2026-05-07 11:50 | 45.98343 | 22.39558 | 37046 ft | 441 kts | 167° |
| 2026-05-07 11:51 | 45.92438 | 22.41997 | 37040 ft | 441 kts | 167° |
| 2026-05-07 11:51 | 45.86485 | 22.44451 | 37044 ft | 441 kts | 168° |
| 2026-05-07 11:52 | 45.80582 | 22.46879 | 37049 ft | 441 kts | 168° |
| 2026-05-07 11:52 | 45.74868 | 22.49226 | 37043 ft | 442 kts | 168° |
| 2026-05-07 11:53 | 45.68996 | 22.51628 | 37048 ft | 442 kts | 168° |
| 2026-05-07 11:53 | 45.63079 | 22.54042 | 37052 ft | 442 kts | 168° |
| 2026-05-07 11:54 | 45.57160 | 22.56452 | 37056 ft | 442 kts | 168° |
| 2026-05-07 11:54 | 45.51231 | 22.58862 | 37056 ft | 443 kts | 168° |
| 2026-05-07 11:55 | 45.45307 | 22.61265 | 37061 ft | 442 kts | 168° |
| 2026-05-07 11:55 | 45.39381 | 22.63664 | 37086 ft | 442 kts | 168° |
| 2026-05-07 11:56 | 45.33466 | 22.66052 | 37053 ft | 441 kts | 168° |
| 2026-05-07 11:56 | 45.27561 | 22.68432 | 37065 ft | 440 kts | 168° |
| 2026-05-07 11:57 | 45.21664 | 22.70803 | 37071 ft | 440 kts | 168° |
| 2026-05-07 11:57 | 45.15767 | 22.73168 | 37086 ft | 440 kts | 168° |
| 2026-05-07 11:58 | 45.09887 | 22.75523 | 37086 ft | 439 kts | 168° |
| 2026-05-07 11:58 | 45.03996 | 22.77876 | 37069 ft | 439 kts | 168° |
| 2026-05-07 11:59 | 44.98127 | 22.80216 | 37074 ft | 438 kts | 168° |
| 2026-05-07 11:59 | 44.92267 | 22.82548 | 37079 ft | 437 kts | 168° |
| 2026-05-07 12:00 | 44.86456 | 22.84877 | 37087 ft | 437 kts | 166° |
| 2026-05-07 12:00 | 44.80724 | 22.87847 | 37077 ft | 440 kts | 163° |
| 2026-05-07 12:01 | 44.75017 | 22.91002 | 37081 ft | 440 kts | 162° |
| 2026-05-07 12:01 | 44.69263 | 22.94157 | 37081 ft | 441 kts | 163° |
| 2026-05-07 12:02 | 44.63538 | 22.97252 | 37084 ft | 442 kts | 163° |
| 2026-05-07 12:02 | 44.57777 | 23.00344 | 37080 ft | 442 kts | 163° |
| 2026-05-07 12:03 | 44.52020 | 23.03426 | 37080 ft | 443 kts | 163° |
| 2026-05-07 12:03 | 44.46250 | 23.06508 | 37091 ft | 444 kts | 163° |
| 2026-05-07 12:04 | 44.41444 | 23.09070 | 37075 ft | 445 kts | 163° |
| 2026-05-07 12:04 | 44.35655 | 23.12151 | 37066 ft | 445 kts | 163° |
| 2026-05-07 12:05 | 44.28925 | 23.15726 | 37073 ft | 445 kts | 163° |
| 2026-05-07 12:05 | 44.24068 | 23.18299 | 37066 ft | 445 kts | 163° |
| 2026-05-07 12:06 | 44.18311 | 23.21344 | 37065 ft | 445 kts | 163° |
| 2026-05-07 12:06 | 44.12517 | 23.24402 | 37065 ft | 445 kts | 163° |
| 2026-05-07 12:07 | 44.06730 | 23.27450 | 37060 ft | 445 kts | 163° |
| 2026-05-07 12:07 | 44.00930 | 23.30498 | 37060 ft | 445 kts | 163° |
| 2026-05-07 12:08 | 43.95133 | 23.33538 | 37061 ft | 446 kts | 163° |
| 2026-05-07 12:08 | 43.89320 | 23.36581 | 37060 ft | 446 kts | 163° |
| 2026-05-07 12:09 | 43.83506 | 23.39617 | 37059 ft | 447 kts | 163° |
| 2026-05-07 12:09 | 43.77678 | 23.42654 | 37064 ft | 447 kts | 163° |
| 2026-05-07 12:10 | 43.71852 | 23.45685 | 37067 ft | 447 kts | 163° |
| 2026-05-07 12:10 | 43.66010 | 23.48717 | 37058 ft | 448 kts | 163° |
| 2026-05-07 12:11 | 43.60172 | 23.51740 | 37060 ft | 448 kts | 163° |
| 2026-05-07 12:11 | 43.54356 | 23.54746 | 37053 ft | 449 kts | 163° |
| 2026-05-07 12:12 | 43.48497 | 23.57768 | 37057 ft | 450 kts | 163° |
| 2026-05-07 12:12 | 43.42628 | 23.60789 | 37064 ft | 451 kts | 163° |
| 2026-05-07 12:13 | 43.36704 | 23.63832 | 37058 ft | 451 kts | 163° |
| 2026-05-07 12:13 | 43.30859 | 23.66828 | 37065 ft | 452 kts | 163° |
| 2026-05-07 12:14 | 43.24950 | 23.69851 | 37057 ft | 453 kts | 163° |
| 2026-05-07 12:14 | 43.19043 | 23.72867 | 37077 ft | 453 kts | 163° |
| 2026-05-07 12:15 | 43.13130 | 23.75880 | 37060 ft | 453 kts | 163° |
| 2026-05-07 12:15 | 43.07171 | 23.78911 | 37078 ft | 454 kts | 163° |
| 2026-05-07 12:16 | 43.01257 | 23.81944 | 37079 ft | 455 kts | 162° |
| 2026-05-07 12:16 | 42.95386 | 23.85255 | 37078 ft | 456 kts | 161° |
| 2026-05-07 12:17 | 42.89556 | 23.88638 | 37060 ft | 447 kts | 161° |
| 2026-05-07 12:17 | 42.86730 | 23.90296 | 36822 ft | 437 kts | 160° |
| 2026-05-07 12:17 | 42.83981 | 23.91876 | 36721 ft | 422 kts | 162° |
| 2026-05-07 12:17 | 42.81301 | 23.93298 | 36776 ft | 404 kts | 163° |
| 2026-05-07 12:18 | 42.78708 | 23.94651 | 36697 ft | 391 kts | 162° |
| 2026-05-07 12:18 | 42.76333 | 23.95919 | 36909 ft | 386 kts | 163° |
| 2026-05-07 12:18 | 42.73840 | 23.97135 | 37178 ft | 379 kts | 164° |
| 2026-05-07 12:18 | 42.71298 | 23.98416 | 36568 ft | 395 kts | 165° |
| 2026-05-07 12:19 | 42.68698 | 23.99689 | 36454 ft | 400 kts | 163° |
| 2026-05-07 12:19 | 42.63601 | 24.02711 | 36400 ft | 407 kts | 159° |
| 2026-05-07 12:20 | 42.58413 | 24.05985 | 36402 ft | 416 kts | 160° |
| 2026-05-07 12:20 | 42.53016 | 24.09187 | 36494 ft | 424 kts | 161° |
| 2026-05-07 12:21 | 42.47464 | 24.12335 | 36578 ft | 433 kts | 161° |
| 2026-05-07 12:21 | 42.41830 | 24.15477 | 36650 ft | 442 kts | 161° |
| 2026-05-07 12:22 | 42.36093 | 24.18664 | 36730 ft | 450 kts | 161° |
| 2026-05-07 12:22 | 42.30247 | 24.21909 | 36800 ft | 458 kts | 161° |
| 2026-05-07 12:23 | 42.24349 | 24.25179 | 36978 ft | 460 kts | 161° |
| 2026-05-07 12:23 | 42.18432 | 24.28456 | 37069 ft | 461 kts | 161° |
| 2026-05-07 12:24 | 42.12445 | 24.31761 | 37083 ft | 462 kts | 161° |
| 2026-05-07 12:24 | 42.08718 | 24.33815 | 37085 ft | 463 kts | 161° |
| 2026-05-07 12:25 | 42.08225 | 24.34087 | 37087 ft | 463 kts | 161° |
| 2026-05-07 12:25 | 42.02218 | 24.37391 | 37082 ft | 464 kts | 161° |
| 2026-05-07 12:26 | 41.96188 | 24.40702 | 37080 ft | 465 kts | 161° |
| 2026-05-07 12:26 | 41.90180 | 24.43994 | 37079 ft | 465 kts | 161° |
| 2026-05-07 12:27 | 41.84190 | 24.47270 | 37092 ft | 465 kts | 161° |
| 2026-05-07 12:27 | 41.78205 | 24.50536 | 37097 ft | 465 kts | 161° |
| 2026-05-07 12:28 | 41.72194 | 24.53809 | 37100 ft | 464 kts | 161° |
| 2026-05-07 12:28 | 41.66209 | 24.57077 | 37100 ft | 464 kts | 159° |
| 2026-05-07 12:29 | 41.60785 | 24.61818 | 37106 ft | 471 kts | 142° |
| 2026-05-07 12:29 | 41.55883 | 24.67630 | 37105 ft | 471 kts | 141° |
| 2026-05-07 12:30 | 41.50982 | 24.73448 | 37097 ft | 471 kts | 141° |
| 2026-05-07 12:30 | 41.46051 | 24.79211 | 37099 ft | 472 kts | 141° |
| 2026-05-07 12:31 | 41.41110 | 24.84934 | 37098 ft | 471 kts | 141° |
| 2026-05-07 12:31 | 41.36149 | 24.90661 | 37107 ft | 472 kts | 141° |
| 2026-05-07 12:32 | 41.31185 | 24.96382 | 37109 ft | 472 kts | 141° |
| 2026-05-07 12:32 | 41.26220 | 25.02094 | 37109 ft | 472 kts | 141° |
| 2026-05-07 12:33 | 41.18752 | 25.10663 | 37111 ft | 472 kts | 141° |
| 2026-05-07 12:33 | 41.13779 | 25.16356 | 37121 ft | 472 kts | 141° |
| 2026-05-07 12:34 | 41.09638 | 25.21085 | 37117 ft | 472 kts | 141° |
| 2026-05-07 12:34 | 41.04659 | 25.26763 | 37129 ft | 472 kts | 141° |
| 2026-05-07 12:35 | 40.99635 | 25.32479 | 37123 ft | 472 kts | 141° |
| 2026-05-07 12:35 | 40.94642 | 25.38149 | 37126 ft | 472 kts | 141° |
| 2026-05-07 12:36 | 40.89664 | 25.43791 | 37131 ft | 472 kts | 141° |
| 2026-05-07 12:36 | 40.84682 | 25.49424 | 37124 ft | 472 kts | 141° |
| 2026-05-07 12:37 | 40.79689 | 25.55059 | 37123 ft | 472 kts | 141° |
| 2026-05-07 12:37 | 40.74696 | 25.60682 | 37118 ft | 472 kts | 141° |
| 2026-05-07 12:38 | 40.69691 | 25.66306 | 37118 ft | 472 kts | 142° |
| 2026-05-07 12:38 | 40.64682 | 25.71925 | 37118 ft | 472 kts | 142° |
| 2026-05-07 12:39 | 40.59672 | 25.77534 | 37125 ft | 473 kts | 142° |
| 2026-05-07 12:39 | 40.54655 | 25.83142 | 37127 ft | 473 kts | 142° |
| 2026-05-07 12:40 | 40.49660 | 25.88785 | 37127 ft | 474 kts | 138° |
| 2026-05-07 12:40 | 40.45230 | 25.95226 | 37128 ft | 476 kts | 132° |
| 2026-05-07 12:41 | 40.40930 | 26.01858 | 37129 ft | 477 kts | 132° |
| 2026-05-07 12:41 | 40.36592 | 26.08443 | 37128 ft | 477 kts | 133° |
| 2026-05-07 12:42 | 40.32244 | 26.14948 | 37129 ft | 478 kts | 133° |
| 2026-05-07 12:42 | 40.27851 | 26.21490 | 37130 ft | 478 kts | 133° |
| 2026-05-07 12:43 | 40.23448 | 26.28037 | 37128 ft | 479 kts | 133° |
| 2026-05-07 12:43 | 40.19040 | 26.34583 | 37133 ft | 480 kts | 133° |
| 2026-05-07 12:44 | 40.14621 | 26.41132 | 37127 ft | 480 kts | 133° |
| 2026-05-07 12:44 | 40.10017 | 26.47446 | 37136 ft | 480 kts | 137° |
| 2026-05-07 12:45 | 40.05210 | 26.53498 | 37130 ft | 480 kts | 138° |
| 2026-05-07 12:45 | 40.00394 | 26.59559 | 37126 ft | 481 kts | 137° |
| 2026-05-07 12:46 | 39.95605 | 26.65645 | 37124 ft | 482 kts | 137° |
| 2026-05-07 12:46 | 39.90809 | 26.71753 | 37119 ft | 482 kts | 137° |
| 2026-05-07 12:47 | 39.86004 | 26.77859 | 37125 ft | 482 kts | 137° |
| 2026-05-07 12:47 | 39.81194 | 26.83956 | 37120 ft | 483 kts | 137° |
| 2026-05-07 12:48 | 39.76382 | 26.90040 | 37130 ft | 483 kts | 137° |
| 2026-05-07 12:48 | 39.71508 | 26.96050 | 37129 ft | 483 kts | 138° |
| 2026-05-07 12:49 | 39.66607 | 27.02029 | 37125 ft | 483 kts | 138° |
| 2026-05-07 12:49 | 39.61713 | 27.08012 | 37129 ft | 483 kts | 138° |
| 2026-05-07 12:50 | 39.56825 | 27.13989 | 37126 ft | 483 kts | 138° |
| 2026-05-07 12:50 | 39.51735 | 27.19613 | 37105 ft | 477 kts | 155° |
| 2026-05-07 12:51 | 39.48679 | 27.21145 | 37143 ft | 469 kts | 170° |
| 2026-05-07 12:51 | 39.45463 | 27.21663 | 37122 ft | 461 kts | 186° |
| 2026-05-07 12:51 | 39.39152 | 27.20646 | 37129 ft | 456 kts | 193° |
| 2026-05-07 12:52 | 39.32871 | 27.19360 | 37128 ft | 457 kts | 193° |
| 2026-05-07 12:52 | 39.26563 | 27.18145 | 37128 ft | 459 kts | 192° |
| 2026-05-07 12:53 | 39.20235 | 27.16983 | 37131 ft | 460 kts | 192° |
| 2026-05-07 12:53 | 39.13884 | 27.15828 | 37117 ft | 462 kts | 192° |
| 2026-05-07 12:54 | 39.07554 | 27.14674 | 37118 ft | 462 kts | 192° |
| 2026-05-07 12:54 | 39.01183 | 27.13514 | 37125 ft | 462 kts | 192° |
| 2026-05-07 12:55 | 38.94814 | 27.12343 | 37111 ft | 463 kts | 192° |
| 2026-05-07 12:55 | 38.88560 | 27.11180 | 37111 ft | 462 kts | 192° |
| 2026-05-07 12:56 | 38.82187 | 27.09996 | 37115 ft | 462 kts | 192° |
| 2026-05-07 12:56 | 38.75819 | 27.08817 | 37116 ft | 462 kts | 192° |
| 2026-05-07 12:57 | 38.69456 | 27.07642 | 37115 ft | 462 kts | 192° |
| 2026-05-07 12:57 | 38.63092 | 27.06470 | 37106 ft | 462 kts | 192° |
| 2026-05-07 12:58 | 38.56752 | 27.05303 | 37109 ft | 462 kts | 192° |
| 2026-05-07 12:58 | 38.50383 | 27.04134 | 37120 ft | 462 kts | 192° |
| 2026-05-07 12:59 | 38.44121 | 27.02991 | 37096 ft | 441 kts | 193° |
| 2026-05-07 12:59 | 38.41118 | 27.02444 | 37107 ft | 427 kts | 193° |
| 2026-05-07 12:59 | 38.38219 | 27.01915 | 37126 ft | 415 kts | 193° |
| 2026-05-07 13:00 | 38.32552 | 27.01324 | 37130 ft | 416 kts | 179° |
| 2026-05-07 13:00 | 38.29660 | 27.01943 | 37130 ft | 427 kts | 168° |
| 2026-05-07 13:00 | 38.26835 | 27.03246 | 37144 ft | 435 kts | 160° |
| 2026-05-07 13:01 | 38.21238 | 27.06411 | 37043 ft | 442 kts | 159° |
| 2026-05-07 13:01 | 38.18441 | 27.08024 | 36582 ft | 440 kts | 159° |
| 2026-05-07 13:01 | 38.15618 | 27.09633 | 35671 ft | 450 kts | 159° |
| 2026-05-07 13:02 | 38.12718 | 27.11262 | 34643 ft | 462 kts | 160° |
| 2026-05-07 13:02 | 38.09731 | 27.12923 | 33622 ft | 472 kts | 160° |
| 2026-05-07 13:02 | 38.06687 | 27.14608 | 32581 ft | 481 kts | 160° |
| 2026-05-07 13:02 | 38.03598 | 27.16313 | 31704 ft | 485 kts | 159° |
| 2026-05-07 13:03 | 38.00498 | 27.18023 | 30913 ft | 487 kts | 159° |
| 2026-05-07 13:03 | 37.97422 | 27.19720 | 30199 ft | 487 kts | 159° |
| 2026-05-07 13:03 | 37.94310 | 27.21434 | 29318 ft | 487 kts | 159° |
| 2026-05-07 13:03 | 37.91193 | 27.23150 | 28328 ft | 489 kts | 159° |
| 2026-05-07 13:04 | 37.88049 | 27.24878 | 27282 ft | 492 kts | 159° |
| 2026-05-07 13:04 | 37.84891 | 27.26611 | 26271 ft | 495 kts | 159° |
| 2026-05-07 13:04 | 37.81738 | 27.28342 | 25563 ft | 491 kts | 158° |
| 2026-05-07 13:04 | 37.78645 | 27.30039 | 25254 ft | 479 kts | 158° |
| 2026-05-07 13:05 | 37.75634 | 27.31691 | 25139 ft | 462 kts | 158° |
| 2026-05-07 13:05 | 37.72734 | 27.33280 | 25055 ft | 447 kts | 158° |
| 2026-05-07 13:05 | 37.69895 | 27.34832 | 24953 ft | 433 kts | 159° |
| 2026-05-07 13:05 | 37.67200 | 27.36303 | 24861 ft | 419 kts | 159° |
| 2026-05-07 13:06 | 37.64525 | 27.37763 | 24782 ft | 406 kts | 159° |
| 2026-05-07 13:06 | 37.62004 | 27.39146 | 24703 ft | 395 kts | 158° |
| 2026-05-07 13:06 | 37.59520 | 27.40563 | 24364 ft | 392 kts | 157° |
| 2026-05-07 13:06 | 37.57048 | 27.41997 | 23908 ft | 388 kts | 157° |
| 2026-05-07 13:07 | 37.54590 | 27.43419 | 23382 ft | 383 kts | 157° |
| 2026-05-07 13:07 | 37.52173 | 27.44811 | 22920 ft | 376 kts | 157° |
| 2026-05-07 13:07 | 37.50630 | 27.45722 | 22570 ft | 373 kts | 153° |
| 2026-05-07 13:07 | 37.48546 | 27.47680 | 21928 ft | 373 kts | 135° |
| 2026-05-07 13:08 | 37.47018 | 27.49648 | 21458 ft | 371 kts | 134° |
| 2026-05-07 13:08 | 37.45333 | 27.51862 | 20920 ft | 369 kts | 134° |
| 2026-05-07 13:08 | 37.42972 | 27.54911 | 20201 ft | 365 kts | 135° |
| 2026-05-07 13:08 | 37.41767 | 27.56438 | 19856 ft | 363 kts | 135° |
| 2026-05-07 13:09 | 37.39998 | 27.58670 | 19348 ft | 361 kts | 134° |
| 2026-05-07 13:09 | 37.38541 | 27.61280 | 18781 ft | 358 kts | 111° |
| 2026-05-07 13:09 | 37.37756 | 27.64183 | 18278 ft | 354 kts | 105° |
| 2026-05-07 13:09 | 37.37073 | 27.67140 | 17739 ft | 351 kts | 104° |
| 2026-05-07 13:10 | 37.36409 | 27.70072 | 17230 ft | 346 kts | 104° |
| 2026-05-07 13:10 | 37.35746 | 27.72959 | 16732 ft | 342 kts | 104° |
| 2026-05-07 13:10 | 37.35079 | 27.75813 | 16256 ft | 339 kts | 104° |
| 2026-05-07 13:10 | 37.34410 | 27.78639 | 15757 ft | 335 kts | 104° |
| 2026-05-07 13:11 | 37.33741 | 27.81438 | 15383 ft | 330 kts | 104° |
| 2026-05-07 13:11 | 37.33093 | 27.84135 | 15225 ft | 316 kts | 104° |
| 2026-05-07 13:11 | 37.32463 | 27.86752 | 14955 ft | 307 kts | 104° |
| 2026-05-07 13:11 | 37.31851 | 27.89297 | 14640 ft | 302 kts | 104° |
| 2026-05-07 13:12 | 37.31248 | 27.91802 | 14267 ft | 298 kts | 104° |
| 2026-05-07 13:12 | 37.30657 | 27.94255 | 13835 ft | 297 kts | 104° |
| 2026-05-07 13:12 | 37.30046 | 27.96795 | 13403 ft | 294 kts | 104° |
| 2026-05-07 13:12 | 37.29458 | 27.99229 | 13030 ft | 289 kts | 104° |
| 2026-05-07 13:13 | 37.28864 | 28.01689 | 12595 ft | 287 kts | 104° |
| 2026-05-07 13:13 | 37.28286 | 28.04081 | 12182 ft | 285 kts | 104° |
| 2026-05-07 13:13 | 37.27704 | 28.06485 | 11797 ft | 282 kts | 104° |
| 2026-05-07 13:13 | 37.27140 | 28.08812 | 11418 ft | 280 kts | 104° |
| 2026-05-07 13:14 | 37.26576 | 28.11134 | 11041 ft | 277 kts | 104° |
| 2026-05-07 13:14 | 37.25955 | 28.13417 | 10583 ft | 277 kts | 116° |
| 2026-05-07 13:14 | 37.24700 | 28.15235 | 10199 ft | 278 kts | 146° |
| 2026-05-07 13:14 | 37.22913 | 28.16096 | 9792 ft | 278 kts | 174° |
| 2026-05-07 13:15 | 37.21011 | 28.15894 | 9345 ft | 275 kts | 196° |
| 2026-05-07 13:15 | 37.19202 | 28.15214 | 8947 ft | 272 kts | 198° |
| 2026-05-07 13:15 | 37.17436 | 28.14519 | 8786 ft | 260 kts | 200° |
| 2026-05-07 13:15 | 37.15914 | 28.13414 | 8547 ft | 248 kts | 229° |
| 2026-05-07 13:16 | 37.15075 | 28.11652 | 8475 ft | 224 kts | 256° |
| 2026-05-07 13:16 | 37.14845 | 28.09818 | 8356 ft | 204 kts | 275° |
| 2026-05-07 13:16 | 37.15070 | 28.08147 | 8186 ft | 189 kts | 289° |
| 2026-05-07 13:16 | 37.15450 | 28.06565 | 7781 ft | 190 kts | 291° |
| 2026-05-07 13:17 | 37.15849 | 28.04960 | 7399 ft | 194 kts | 291° |
| 2026-05-07 13:17 | 37.16249 | 28.03375 | 7061 ft | 196 kts | 292° |
| 2026-05-07 13:17 | 37.16648 | 28.01768 | 6839 ft | 192 kts | 291° |
| 2026-05-07 13:17 | 37.17036 | 28.00174 | 6623 ft | 188 kts | 291° |
| 2026-05-07 13:18 | 37.17430 | 27.98617 | 6289 ft | 193 kts | 291° |
| 2026-05-07 13:18 | 37.17846 | 27.97040 | 6082 ft | 188 kts | 292° |
| 2026-05-07 13:18 | 37.18272 | 27.95493 | 6076 ft | 193 kts | 290° |
| 2026-05-07 13:18 | 37.18687 | 27.93897 | 5969 ft | 190 kts | 294° |
| 2026-05-07 13:19 | 37.19101 | 27.92341 | 6014 ft | 186 kts | 292° |
| 2026-05-07 13:19 | 37.19499 | 27.90807 | 6005 ft | 183 kts | 291° |
| 2026-05-07 13:19 | 37.19883 | 27.89258 | 5987 ft | 183 kts | 291° |
| 2026-05-07 13:19 | 37.20311 | 27.87754 | 5996 ft | 183 kts | 292° |
| 2026-05-07 13:20 | 37.20680 | 27.86275 | 6021 ft | 176 kts | 291° |
| 2026-05-07 13:20 | 37.21036 | 27.84823 | 5987 ft | 172 kts | 290° |
| 2026-05-07 13:20 | 37.21289 | 27.83326 | 5770 ft | 178 kts | 283° |
| 2026-05-07 13:20 | 37.21475 | 27.81786 | 5257 ft | 181 kts | 282° |
| 2026-05-07 13:21 | 37.21759 | 27.80234 | 4623 ft | 184 kts | 289° |
| 2026-05-07 13:21 | 37.22178 | 27.78662 | 4038 ft | 190 kts | 289° |
| 2026-05-07 13:21 | 37.22603 | 27.77064 | 3346 ft | 199 kts | 288° |
| 2026-05-07 13:21 | 37.23002 | 27.75435 | 2869 ft | 192 kts | 286° |
| 2026-05-07 13:22 | 37.23406 | 27.73823 | 2043 ft | 197 kts | 287° |
| 2026-05-07 13:22 | 37.23794 | 27.72147 | 1254 ft | 200 kts | 283° |
| 2026-05-07 13:22 | 37.24071 | 27.70918 | 933 ft | 188 kts | 286° |
| 2026-05-07 13:22 | 37.24435 | 27.69395 | 430 ft | 178 kts | 281° |
| 2026-05-07 13:23 | 37.24780 | 27.67929 | 59 ft | 167 kts | 283° |
| 2026-05-07 13:23 | 37.25047 | 27.66786 | 29 ft | 108 kts | 287° |
| 2026-05-07 13:23 | 37.25150 | 27.66358 | 29 ft | 16 kts | 287° |
| 2026-05-07 13:23 | 37.25181 | 27.66231 | 28 ft | 14 kts | 287° |
| 2026-05-07 13:24 | 37.25208 | 27.66118 | 29 ft | 13 kts | 287° |
| 2026-05-07 13:24 | 37.25233 | 27.66011 | 29 ft | 13 kts | 286° |
| 2026-05-07 13:24 | 37.25259 | 27.65900 | 28 ft | 14 kts | 286° |
| 2026-05-07 13:24 | 37.25259 | 27.65786 | 28 ft | 13 kts | 256° |
| 2026-05-07 13:25 | 37.25238 | 27.65677 | 28 ft | 12 kts | 256° |
| 2026-05-07 13:25 | 37.25215 | 27.65576 | 29 ft | 11 kts | 237° |
| 2026-05-07 13:25 | 37.25163 | 27.65596 | 29 ft | 9 kts | 120° |
| 2026-05-07 13:25 | 37.25143 | 27.65679 | 29 ft | 11 kts | 107° |
| 2026-05-07 13:26 | 37.25120 | 27.65772 | 29 ft | 11 kts | 107° |
| 2026-05-07 13:26 | 37.25096 | 27.65867 | 29 ft | 11 kts | 107° |
| 2026-05-07 13:26 | 37.25054 | 27.65950 | 29 ft | 11 kts | 153° |
| 2026-05-07 13:26 | 37.24978 | 27.65936 | 29 ft | 11 kts | 195° |
| 2026-05-07 13:27 | 37.24918 | 27.65971 | 29 ft | 11 kts | 109° |
| 2026-05-07 13:27 | 37.24897 | 27.66062 | 29 ft | 11 kts | 106° |
| 2026-05-07 13:27 | 37.24875 | 27.66161 | 29 ft | 12 kts | 106° |
| 2026-05-07 13:27 | 37.24849 | 27.66269 | 29 ft | 13 kts | 107° |
| 2026-05-07 13:28 | 37.24822 | 27.66384 | 29 ft | 14 kts | 105° |
| 2026-05-07 13:28 | 37.24788 | 27.66500 | 29 ft | 14 kts | 115° |
| 2026-05-07 13:28 | 37.24766 | 27.66580 | 29 ft | 15 kts | 106° |
| 2026-05-07 13:28 | 37.24736 | 27.66706 | 29 ft | 16 kts | 107° |
| 2026-05-07 13:29 | 37.24704 | 27.66839 | 29 ft | 16 kts | 107° |
| 2026-05-07 13:29 | 37.24671 | 27.66976 | 29 ft | 17 kts | 107° |
| 2026-05-07 13:29 | 37.24637 | 27.67118 | 29 ft | 17 kts | 107° |
| 2026-05-07 13:29 | 37.24602 | 27.67263 | 30 ft | 18 kts | 106° |
| 2026-05-07 13:30 | 37.24567 | 27.67415 | 29 ft | 18 kts | 107° |
| 2026-05-07 13:30 | 37.24537 | 27.67534 | 29 ft | 0 kts | 107° |
| 2026-05-07 13:30 | 37.24537 | 27.67535 | 29 ft | 0 kts | 107° |
| 2026-05-07 13:30 | 37.24535 | 27.67543 | 29 ft | 6 kts | 107° |
| 2026-05-07 13:31 | 37.24514 | 27.67628 | 30 ft | 0 kts | 107° |
| 2026-05-07 13:31 | 37.24502 | 27.67662 | 28 ft | 1 kts | 135° |
| 2026-05-07 13:31 | 37.24498 | 27.67665 | 28 ft | 1 kts | 144° |
| 2026-05-07 13:31 | 37.24485 | 27.67670 | 29 ft | 2 kts | 174° |
| 2026-05-07 13:32 | 37.24453 | 27.67664 | 29 ft | 1 kts | 201° |
| 2026-05-07 13:32 | 37.24425 | 27.67652 | 29 ft | 2 kts | 198° |
| 2026-05-07 13:32 | 37.24423 | 27.67651 | 29 ft | 0 kts | 198° |